Time;durP1;ratioP1;P1;durP2;ratioP2;P2;SDS_P1;SDS_P2;PMS_P1;PMS_P2;Temp;Humidity;BMP_temperature;BMP_pressure;BME280_temperature;BME280_humidity;BME280_pressure;Samples;Min_cycle;Max_cycle;Signal;HPM_P1;HPM_P2
2023/03/10 00:01:22;;;;;;;4.45;3.40;;;;;;;3.63;74.49;97169.06;5050595;28;20049;-80
2023/03/10 00:03:50;;;;;;;5.03;3.72;;;;;;;3.65;74.59;97169.78;5032768;28;20041;-80
2023/03/10 00:06:19;;;;;;;5.00;3.70;;;;;;;3.67;74.64;97171.44;5032485;28;20102;-78
2023/03/10 00:08:46;;;;;;;4.28;3.47;;;;;;;3.67;74.94;97166.25;5049963;28;20057;-80
2023/03/10 00:11:14;;;;;;;6.07;3.85;;;;;;;3.67;74.67;97150.63;5050218;28;20080;-79
2023/03/10 00:13:41;;;;;;;4.80;3.40;;;;;;;3.68;75.13;97147.94;5032488;28;20505;-78
2023/03/10 00:16:14;;;;;;;4.65;3.78;;;;;;;3.70;74.72;97133.03;5049834;28;20053;-78
2023/03/10 00:18:41;;;;;;;5.22;3.60;;;;;;;3.72;74.60;97125.13;5050148;28;20072;-79
2023/03/10 00:21:13;;;;;;;4.00;3.42;;;;;;;3.73;74.94;97129.38;5050417;28;20053;-79
2023/03/10 00:23:40;;;;;;;4.72;3.70;;;;;;;3.73;74.69;97126.78;5050351;28;20064;-79
2023/03/10 00:26:07;;;;;;;4.43;3.45;;;;;;;3.74;75.03;97111.06;5049976;28;20140;-79
2023/03/10 00:28:33;;;;;;;5.63;3.83;;;;;;;3.75;74.81;97107.53;5049869;28;20091;-80
2023/03/10 00:31:03;;;;;;;5.45;3.65;;;;;;;3.76;74.77;97106.59;5050348;28;20049;-80
2023/03/10 00:33:31;;;;;;;4.30;3.72;;;;;;;3.77;74.61;97104.78;5050186;28;20053;-79
2023/03/10 00:36:13;;;;;;;4.80;3.70;;;;;;;3.76;74.65;97098.78;5032232;28;20087;-79
2023/03/10 00:38:41;;;;;;;4.88;4.10;;;;;;;3.80;75.12;97096.78;5050103;28;20056;-79
2023/03/10 00:41:11;;;;;;;5.55;4.32;;;;;;;3.81;74.88;97092.41;5050489;28;20055;-79
2023/03/10 00:43:38;;;;;;;4.88;3.70;;;;;;;3.82;74.59;97073.25;5050392;28;20045;-79
2023/03/10 00:46:06;;;;;;;5.10;4.22;;;;;;;3.83;74.91;97074.91;5032016;28;20080;-79
2023/03/10 00:48:33;;;;;;;9.15;4.15;;;;;;;3.82;74.91;97066.28;5038202;28;20056;-77
2023/03/10 00:50:59;;;;;;;5.28;3.80;;;;;;;3.83;74.70;97067.09;5049556;28;20049;-80
2023/03/10 00:53:27;;;;;;;4.88;3.67;;;;;;;3.82;74.78;97068.88;5015608;28;20045;-80
2023/03/10 00:56:00;;;;;;;7.00;4.53;;;;;;;3.81;74.60;97049.00;5033163;28;20088;-79
2023/03/10 00:58:26;;;;;;;5.38;3.92;;;;;;;3.82;74.73;97032.47;5033435;28;20045;-77
2023/03/10 01:00:53;;;;;;;4.32;3.63;;;;;;;3.82;74.71;97027.25;5055502;22;20125;-80
2023/03/10 01:03:20;;;;;;;5.15;4.25;;;;;;;3.81;74.83;97014.34;5021382;28;20065;-80
2023/03/10 01:05:51;;;;;;;5.15;4.47;;;;;;;3.79;74.54;97014.47;5035417;28;20463;-79
2023/03/10 01:08:18;;;;;;;4.80;4.00;;;;;;;3.80;74.73;97010.06;5037429;28;20057;-80
2023/03/10 01:10:44;;;;;;;4.10;3.70;;;;;;;3.78;74.64;97007.59;5025905;28;20057;-80
2023/03/10 01:13:12;;;;;;;3.90;3.30;;;;;;;3.79;75.13;97006.66;5032865;28;20053;-80
2023/03/10 01:15:40;;;;;;;4.82;3.60;;;;;;;3.77;74.90;96998.13;5031992;28;20056;-80
2023/03/10 01:18:06;;;;;;;4.18;3.45;;;;;;;3.81;75.23;96988.34;5032180;28;20053;-80
2023/03/10 01:20:34;;;;;;;4.30;3.67;;;;;;;3.81;75.34;96981.34;5032269;28;20056;-81
2023/03/10 01:23:00;;;;;;;4.72;3.58;;;;;;;3.85;75.12;96984.56;5032400;28;20072;-80
2023/03/10 01:25:28;;;;;;;4.50;3.65;;;;;;;3.87;74.85;96967.03;5031339;28;21549;-80
2023/03/10 01:27:54;;;;;;;3.80;2.97;;;;;;;3.87;75.06;96959.25;5023806;28;20104;-81
2023/03/10 01:30:20;;;;;;;3.70;3.30;;;;;;;3.87;74.79;96956.63;5031763;28;20566;-80
2023/03/10 01:32:47;;;;;;;6.70;3.42;;;;;;;3.87;74.95;96951.44;5013318;28;20447;-80
2023/03/10 01:35:13;;;;;;;6.10;3.00;;;;;;;3.88;75.08;96943.50;5021357;28;20077;-80
2023/03/10 01:37:40;;;;;;;4.20;3.00;;;;;;;3.87;75.04;96933.22;5021733;28;20056;-80
2023/03/10 01:40:15;;;;;;;4.53;3.00;;;;;;;3.87;74.70;96922.81;5031989;28;20046;-80
2023/03/10 01:42:42;;;;;;;3.38;2.90;;;;;;;3.87;74.92;96922.81;5036456;28;20053;-80
2023/03/10 01:45:28;;;;;;;9.10;3.47;;;;;;;3.82;75.00;96925.78;5042114;28;20092;-80
2023/03/10 01:47:55;;;;;;;3.80;2.90;;;;;;;3.85;75.02;96909.91;4984582;28;20057;-81
2023/03/10 01:50:23;;;;;;;3.20;2.88;;;;;;;3.86;75.28;96910.75;5043409;28;20060;-80
2023/03/10 01:52:55;;;;;;;3.72;2.90;;;;;;;3.86;75.14;96897.75;5043330;28;20049;-80
2023/03/10 01:55:33;;;;;;;3.47;2.78;;;;;;;3.83;74.89;96904.00;5051610;28;20137;-80
2023/03/10 01:58:01;;;;;;;3.60;2.88;;;;;;;3.85;75.19;96903.91;5051093;28;20056;-80
2023/03/10 02:00:28;;;;;;;3.45;2.80;;;;;;;3.86;75.38;96902.94;5050646;28;20056;-80
2023/03/10 02:03:12;;;;;;;3.03;2.60;;;;;;;3.84;75.33;96910.84;5051377;28;20084;-80
2023/03/10 02:05:44;;;;;;;5.70;2.92;;;;;;;3.88;75.17;96919.25;5051250;28;20470;-79
2023/03/10 02:08:11;;;;;;;4.82;2.97;;;;;;;3.93;75.12;96929.31;5050727;28;20495;-80
2023/03/10 02:10:38;;;;;;;4.18;3.08;;;;;;;3.96;75.33;96934.31;5033766;28;20103;-81
2023/03/10 02:13:04;;;;;;;3.97;3.35;;;;;;;4.00;75.43;96928.75;5051320;28;20396;-80
2023/03/10 02:15:32;;;;;;;4.32;3.13;;;;;;;4.02;75.30;96934.66;5050797;28;20560;-80
2023/03/10 02:18:02;;;;;;;4.22;3.45;;;;;;;4.07;75.16;96938.69;5050801;28;20440;-80
2023/03/10 02:20:46;;;;;;;5.28;3.55;;;;;;;4.10;74.89;96941.88;5043499;28;20088;-81
2023/03/10 02:23:27;;;;;;;13.13;3.50;;;;;;;4.14;74.53;96937.28;5051008;28;20507;-80
2023/03/10 02:26:04;;;;;;;4.95;3.20;;;;;;;4.16;74.64;96951.00;5033176;28;20052;-80
2023/03/10 02:28:31;;;;;;;3.10;2.70;;;;;;;4.19;74.62;96969.00;5050648;28;20049;-80
2023/03/10 02:30:59;;;;;;;9.25;3.63;;;;;;;4.21;74.80;96953.25;5051027;28;20474;-79
2023/03/10 02:33:29;;;;;;;2.95;2.58;;;;;;;4.24;74.61;96958.22;5050989;28;20103;-81
2023/03/10 02:36:11;;;;;;;2.15;1.83;;;;;;;4.23;74.29;96969.59;5032518;28;20115;-80
2023/03/10 02:38:38;;;;;;;2.33;2.10;;;;;;;4.26;74.84;96962.38;5050660;28;20135;-80
2023/03/10 02:41:19;;;;;;;2.60;2.30;;;;;;;4.27;74.55;96955.41;5050738;28;20059;-80
2023/03/10 02:43:46;;;;;;;2.75;2.35;;;;;;;4.31;74.35;96956.81;5033106;28;20060;-80
2023/03/10 02:46:13;;;;;;;3.20;2.40;;;;;;;4.33;74.42;96943.69;5050284;28;20103;-79
2023/03/10 02:48:40;;;;;;;3.30;2.72;;;;;;;4.35;74.62;96937.41;5050178;28;20080;-80
2023/03/10 02:51:11;;;;;;;3.25;2.67;;;;;;;4.35;74.52;96940.03;5032965;28;20049;-80
2023/03/10 02:53:37;;;;;;;3.35;2.60;;;;;;;4.38;74.66;96931.94;5032897;28;20053;-80
2023/03/10 02:56:04;;;;;;;2.58;2.33;;;;;;;4.42;74.32;96922.13;5050234;28;20057;-80
2023/03/10 02:58:30;;;;;;;3.10;2.80;;;;;;;4.42;74.46;96917.75;5032223;28;20052;-80
2023/03/10 03:00:57;;;;;;;2.63;2.42;;;;;;;4.44;74.21;96925.44;5050185;28;20080;-80
2023/03/10 03:03:24;;;;;;;3.00;2.50;;;;;;;4.43;74.20;96923.78;5049748;28;20118;-80
2023/03/10 03:05:51;;;;;;;2.65;2.42;;;;;;;4.45;74.15;96939.31;5031632;28;20053;-80
2023/03/10 03:08:18;;;;;;;2.88;2.58;;;;;;;4.45;74.35;96932.31;5031499;28;20416;-80
2023/03/10 03:10:45;;;;;;;2.45;2.25;;;;;;;4.46;74.14;96933.97;5049317;28;20137;-81
2023/03/10 03:13:11;;;;;;;3.00;2.55;;;;;;;4.46;74.28;96936.59;5049461;28;20057;-80
2023/03/10 03:15:38;;;;;;;2.70;2.50;;;;;;;4.45;74.26;96947.94;5031284;28;20053;-80
2023/03/10 03:18:05;;;;;;;2.55;2.25;;;;;;;4.45;74.24;96949.72;5031291;28;20102;-80
2023/03/10 03:20:32;;;;;;;3.08;2.30;;;;;;;4.46;74.41;96954.81;5049318;28;20057;-80
2023/03/10 03:22:58;;;;;;;2.65;2.45;;;;;;;4.46;74.42;96944.41;5049508;28;20076;-80
2023/03/10 03:25:27;;;;;;;2.05;1.90;;;;;;;4.48;74.28;96946.88;5048905;28;20049;-80
2023/03/10 03:27:54;;;;;;;2.80;2.40;;;;;;;4.48;74.39;96942.50;5048877;28;20041;-80
2023/03/10 03:30:26;;;;;;;2.90;2.60;;;;;;;4.47;73.68;96945.22;5049161;28;20049;-80
2023/03/10 03:32:53;;;;;;;2.70;2.35;;;;;;;4.47;74.38;96945.22;5049232;28;20457;-80
2023/03/10 03:35:28;;;;;;;2.85;2.55;;;;;;;4.43;73.78;96948.06;5048851;28;20057;-80
2023/03/10 03:37:55;;;;;;;2.10;1.90;;;;;;;4.44;74.13;96948.88;5048771;28;20045;-80
2023/03/10 03:40:23;;;;;;;2.67;2.47;;;;;;;4.46;74.38;96952.22;5048927;28;20546;-80
2023/03/10 03:42:52;;;;;;;2.63;2.42;;;;;;;4.46;74.24;96954.81;5048937;28;20453;-80
2023/03/10 03:45:21;;;;;;;2.92;2.25;;;;;;;4.47;74.20;96959.06;5048521;28;20465;-80
2023/03/10 03:47:50;;;;;;;3.05;2.75;;;;;;;4.49;74.34;96951.97;5048889;28;20048;-80
2023/03/10 03:50:18;;;;;;;3.28;2.78;;;;;;;4.50;74.27;96955.41;5048842;28;20045;-80
2023/03/10 03:52:45;;;;;;;3.75;2.60;;;;;;;4.53;74.55;96966.41;5049015;28;20057;-80
2023/03/10 03:55:14;;;;;;;3.03;2.65;;;;;;;4.54;74.36;96972.44;5048543;28;20057;-80
2023/03/10 03:57:41;;;;;;;3.15;2.80;;;;;;;4.57;74.46;96970.44;5030649;28;20052;-80
2023/03/10 04:00:11;;;;;;;3.15;2.85;;;;;;;4.57;74.28;96965.22;5048802;28;20510;-80
2023/03/10 04:02:37;;;;;;;3.67;3.38;;;;;;;4.60;74.48;96964.16;5010204;28;1122643;-80
2023/03/10 04:05:04;;;;;;;3.40;3.10;;;;;;;4.63;74.25;96963.09;5049343;28;20061;-80
2023/03/10 04:07:31;;;;;;;3.63;3.33;;;;;;;4.65;74.23;96966.41;5049305;28;20107;-80
2023/03/10 04:09:58;;;;;;;3.38;3.05;;;;;;;4.65;73.82;96961.19;5049449;28;20144;-81
2023/03/10 04:12:26;;;;;;;3.75;3.40;;;;;;;4.65;73.75;96969.00;5049707;28;20095;-80
2023/03/10 04:14:52;;;;;;;3.70;3.40;;;;;;;4.65;73.98;96974.22;5049326;28;20175;-80
2023/03/10 04:17:19;;;;;;;3.72;3.35;;;;;;;4.66;74.14;96978.47;5048982;28;20053;-80
2023/03/10 04:19:45;;;;;;;3.72;3.20;;;;;;;4.66;73.94;96979.31;5049725;28;20123;-80
2023/03/10 04:22:26;;;;;;;6.18;3.53;;;;;;;4.68;73.94;96979.22;5033724;28;20495;-80
2023/03/10 04:24:53;;;;;;;4.13;3.75;;;;;;;4.68;73.85;96979.22;5052234;28;20495;-80
2023/03/10 04:27:19;;;;;;;4.47;3.78;;;;;;;4.70;73.68;96982.50;5053072;28;20045;-80
2023/03/10 04:29:46;;;;;;;4.05;3.67;;;;;;;4.69;73.85;96981.69;5053573;28;20061;-80
2023/03/10 04:32:12;;;;;;;4.93;3.67;;;;;;;4.69;73.76;96976.47;5035484;28;20442;-80
2023/03/10 04:34:39;;;;;;;5.80;3.78;;;;;;;4.68;73.84;96977.41;5053155;28;20526;-80
2023/03/10 04:37:05;;;;;;;4.88;4.00;;;;;;;4.68;73.79;96979.22;5052379;28;20499;-79
2023/03/10 04:39:32;;;;;;;4.93;4.40;;;;;;;4.69;73.63;96983.47;5053347;28;20400;-80
2023/03/10 04:41:58;;;;;;;5.80;4.55;;;;;;;4.68;73.71;96980.00;5053023;28;20459;-80
2023/03/10 04:44:25;;;;;;;6.60;4.78;;;;;;;4.68;73.79;96982.63;5053141;28;20044;-80
2023/03/10 04:46:57;;;;;;;5.47;4.28;;;;;;;4.69;73.81;96981.69;5052232;28;20110;-80
2023/03/10 04:49:23;;;;;;;6.25;4.63;;;;;;;4.69;73.91;96983.47;5053001;28;20060;-80
2023/03/10 04:51:50;;;;;;;7.40;4.20;;;;;;;4.69;73.97;96968.66;5052729;28;20495;-80
2023/03/10 04:54:16;;;;;;;7.72;4.20;;;;;;;4.68;73.60;96966.19;5053037;28;20056;-80
2023/03/10 04:56:43;;;;;;;5.68;4.13;;;;;;;4.68;73.80;96974.00;5051985;28;20048;-80
2023/03/10 04:59:09;;;;;;;4.22;3.78;;;;;;;4.68;73.91;96974.00;5052702;28;20490;-79
2023/03/10 05:01:35;;;;;;;3.97;3.58;;;;;;;4.68;73.50;96968.78;5052380;28;20049;-80
2023/03/10 05:04:03;;;;;;;4.35;3.80;;;;;;;4.68;73.73;96966.19;5052604;28;20053;-80
2023/03/10 05:06:30;;;;;;;4.00;3.50;;;;;;;4.68;73.77;96974.00;5034722;28;20457;-80
2023/03/10 05:08:56;;;;;;;3.40;3.10;;;;;;;4.67;73.47;96973.16;5052400;28;20053;-80
2023/03/10 05:11:23;;;;;;;3.53;3.17;;;;;;;4.67;73.30;96964.50;5052637;28;20122;-80
2023/03/10 05:13:49;;;;;;;4.38;3.55;;;;;;;4.65;73.73;96966.41;5052598;28;20095;-80
2023/03/10 05:16:18;;;;;;;3.05;2.78;;;;;;;4.65;73.60;96971.63;5052169;28;20045;-80
2023/03/10 05:18:45;;;;;;;3.72;3.40;;;;;;;4.65;73.62;96969.84;5051846;28;20052;-80
2023/03/10 05:21:12;;;;;;;3.42;3.13;;;;;;;4.62;73.58;96964.88;5052438;28;20053;-80
2023/03/10 05:23:39;;;;;;;3.53;3.20;;;;;;;4.62;73.44;96964.88;5034690;28;20466;-80
2023/03/10 05:26:08;;;;;;;3.72;3.10;;;;;;;4.61;73.61;96970.19;5052092;28;20053;-80
2023/03/10 05:28:35;;;;;;;4.00;3.22;;;;;;;4.61;73.46;96973.63;5052008;28;20056;-80
2023/03/10 05:31:08;;;;;;;4.72;3.63;;;;;;;4.56;73.27;96965.34;5051796;28;20503;-81
2023/03/10 05:33:34;;;;;;;4.03;3.47;;;;;;;4.57;73.60;96973.03;5052306;28;20085;-80
2023/03/10 05:36:09;;;;;;;4.00;3.42;;;;;;;4.54;73.33;96985.47;5036031;28;20091;-80
2023/03/10 05:38:35;;;;;;;4.35;3.40;;;;;;;4.56;73.58;96978.34;5023635;28;20052;-80
2023/03/10 05:41:05;;;;;;;4.05;3.33;;;;;;;4.54;73.45;96978.50;5044661;28;20080;-80
2023/03/10 05:43:32;;;;;;;4.25;3.47;;;;;;;4.54;73.67;96978.50;5051801;28;20049;-80
2023/03/10 05:45:59;;;;;;;4.18;3.65;;;;;;;4.54;73.75;96982.88;5051957;28;20076;-80
2023/03/10 05:48:25;;;;;;;3.72;3.35;;;;;;;4.54;73.95;96988.91;5043402;28;20049;-80
2023/03/10 05:51:14;;;;;;;4.35;3.75;;;;;;;4.51;73.39;96973.53;5051475;28;20049;-80
2023/03/10 05:53:41;;;;;;;4.60;3.42;;;;;;;4.51;73.58;96989.16;5045452;28;20057;-80
2023/03/10 05:56:10;;;;;;;4.70;3.80;;;;;;;4.50;73.55;96991.88;5051461;28;20087;-80
2023/03/10 05:58:37;;;;;;;6.00;4.20;;;;;;;4.50;73.83;96991.88;5033564;28;20420;-80
2023/03/10 06:01:03;;;;;;;5.50;4.15;;;;;;;4.49;73.60;96985.81;5051202;28;20061;-80
2023/03/10 06:03:30;;;;;;;6.03;3.80;;;;;;;4.48;73.85;96981.56;5051503;28;20572;-80
2023/03/10 06:05:57;;;;;;;4.07;3.67;;;;;;;4.48;73.62;96981.56;5033552;28;20095;-81
2023/03/10 06:08:26;;;;;;;4.95;4.00;;;;;;;4.47;73.51;96987.72;5051512;28;20077;-79
2023/03/10 06:10:53;;;;;;;6.03;4.05;;;;;;;4.44;73.52;96995.75;5042537;28;20045;-80
2023/03/10 06:13:20;;;;;;;3.55;3.25;;;;;;;4.43;73.38;97001.94;5013724;28;20577;-80
2023/03/10 06:15:51;;;;;;;4.05;3.42;;;;;;;4.41;73.47;96990.81;5047233;28;20449;-80
2023/03/10 06:18:18;;;;;;;4.10;3.65;;;;;;;4.39;73.55;96992.69;5045826;28;20060;-80
2023/03/10 06:20:46;;;;;;;4.07;3.67;;;;;;;4.38;73.42;96997.06;5051047;28;20107;-80
2023/03/10 06:23:14;;;;;;;3.83;3.15;;;;;;;4.37;73.62;96992.00;5051608;28;20080;-79
2023/03/10 06:25:41;;;;;;;3.20;2.90;;;;;;;4.36;73.63;97000.72;5050840;28;20055;-80
2023/03/10 06:28:08;;;;;;;3.67;3.33;;;;;;;4.35;73.71;97001.69;5033294;28;20075;-80
2023/03/10 06:30:35;;;;;;;2.92;2.65;;;;;;;4.34;73.75;96994.81;5050927;28;20060;-80
2023/03/10 06:33:02;;;;;;;3.15;2.80;;;;;;;4.34;73.71;97007.84;5038213;28;20053;-80
2023/03/10 06:35:30;;;;;;;3.35;2.92;;;;;;;4.32;74.19;97022.75;5029513;28;20130;-80
2023/03/10 06:37:56;;;;;;;3.00;2.70;;;;;;;4.30;73.94;97023.69;5033354;28;20106;-79
2023/03/10 06:40:22;;;;;;;3.67;3.17;;;;;;;4.31;74.08;97019.31;5051163;28;20102;-79
2023/03/10 06:42:49;;;;;;;3.53;3.22;;;;;;;4.32;73.98;97014.94;5051253;28;20049;-80
2023/03/10 06:45:16;;;;;;;5.47;3.22;;;;;;;4.33;74.09;97027.84;5050813;28;20060;-80
2023/03/10 06:47:43;;;;;;;5.22;3.40;;;;;;;4.34;74.06;97033.88;5050288;28;20090;-79
2023/03/10 06:50:10;;;;;;;3.30;2.95;;;;;;;4.36;74.14;97031.97;5032931;28;20053;-80
2023/03/10 06:52:37;;;;;;;3.30;2.75;;;;;;;4.36;74.11;97027.63;5051091;28;20122;-79
2023/03/10 06:55:03;;;;;;;3.10;2.80;;;;;;;4.37;74.35;97018.84;5050640;28;20045;-79
2023/03/10 06:57:30;;;;;;;3.20;2.90;;;;;;;4.38;74.17;97017.09;5032663;28;20490;-79
2023/03/10 06:59:56;;;;;;;5.30;3.40;;;;;;;4.39;73.85;97000.50;5050840;28;20085;-79
2023/03/10 07:02:23;;;;;;;4.07;3.17;;;;;;;4.38;73.81;97002.25;5221381;22;20049;-79
2023/03/10 07:04:49;;;;;;;5.03;3.33;;;;;;;4.38;73.79;97007.47;5010523;28;20042;-80
2023/03/10 07:07:16;;;;;;;3.80;3.30;;;;;;;4.37;74.25;97020.66;5017053;28;20111;-79
2023/03/10 07:09:44;;;;;;;3.10;2.80;;;;;;;4.38;74.16;97030.09;5045726;28;20481;-79
2023/03/10 07:12:11;;;;;;;3.85;3.30;;;;;;;4.39;74.19;97029.16;5012047;28;20065;-80
2023/03/10 07:14:38;;;;;;;3.83;3.30;;;;;;;4.39;74.19;97036.97;5007061;28;20056;-81
2023/03/10 07:17:05;;;;;;;3.67;3.17;;;;;;;4.41;74.30;97035.09;5010316;28;20046;-80
2023/03/10 07:19:31;;;;;;;2.92;2.63;;;;;;;4.42;73.93;97032.34;4988296;28;20422;-81
2023/03/10 07:21:58;;;;;;;3.67;3.17;;;;;;;4.43;74.11;97027.97;5007076;28;20091;-81
2023/03/10 07:24:24;;;;;;;3.42;3.03;;;;;;;4.45;74.35;97035.69;5018611;28;20045;-81
2023/03/10 07:26:51;;;;;;;3.15;2.80;;;;;;;4.47;74.45;97031.16;5014164;28;20051;-80
2023/03/10 07:29:17;;;;;;;4.15;3.10;;;;;;;4.48;74.59;97020.63;5014880;28;20080;-81
2023/03/10 07:31:44;;;;;;;3.30;2.90;;;;;;;4.51;74.69;97030.00;5020107;28;20050;-80
2023/03/10 07:34:11;;;;;;;3.35;3.05;;;;;;;4.54;74.48;97032.38;5020912;28;20387;-81
2023/03/10 07:36:37;;;;;;;4.20;3.60;;;;;;;4.57;74.64;97029.53;5025679;28;20103;-81
2023/03/10 07:39:04;;;;;;;5.97;3.50;;;;;;;4.60;74.54;97031.06;5019600;28;20053;-81
2023/03/10 07:41:30;;;;;;;4.13;3.47;;;;;;;4.63;74.67;97039.47;5017834;28;20085;-79
2023/03/10 07:43:57;;;;;;;6.10;3.47;;;;;;;4.66;74.25;97041.00;5015174;28;20417;-81
2023/03/10 07:46:23;;;;;;;3.20;2.90;;;;;;;4.68;74.47;97037.34;5030299;28;20053;-81
2023/03/10 07:48:51;;;;;;;3.40;3.10;;;;;;;4.70;74.31;97034.63;5030225;28;20054;-78
2023/03/10 07:51:18;;;;;;;3.38;3.03;;;;;;;4.73;74.22;97039.59;5031004;28;20449;-80
2023/03/10 07:53:45;;;;;;;3.95;3.55;;;;;;;4.74;74.55;97043.06;5012857;28;20510;-81
2023/03/10 07:56:13;;;;;;;3.50;3.20;;;;;;;4.76;74.43;97052.41;5030351;28;20049;-80
2023/03/10 07:58:40;;;;;;;4.38;3.45;;;;;;;4.80;74.75;97048.63;5013635;28;20049;-81
2023/03/10 08:01:12;;;;;;;4.03;3.38;;;;;;;4.82;74.43;97049.31;5034522;28;20053;-81
2023/03/10 08:03:38;;;;;;;3.92;3.28;;;;;;;4.88;74.55;97044.56;5034791;28;20061;-81
2023/03/10 08:06:06;;;;;;;4.63;3.60;;;;;;;4.89;74.36;97038.41;5034476;28;20452;-81
2023/03/10 08:08:33;;;;;;;4.57;3.60;;;;;;;4.91;74.50;97034.75;5049543;28;20080;-81
2023/03/10 08:11:05;;;;;;;4.38;3.30;;;;;;;4.92;74.33;97033.78;5034594;28;20494;-81
2023/03/10 08:13:32;;;;;;;3.00;2.70;;;;;;;4.97;74.34;97045.66;5034360;28;20041;-81
2023/03/10 08:16:00;;;;;;;3.45;2.90;;;;;;;4.96;74.31;97039.59;5034270;28;20108;-81
2023/03/10 08:18:28;;;;;;;3.15;2.85;;;;;;;4.98;74.29;97037.72;5034063;28;20057;-80
2023/03/10 08:20:55;;;;;;;3.72;3.10;;;;;;;5.01;74.16;97044.47;5034424;28;20450;-81
2023/03/10 08:23:23;;;;;;;3.60;3.10;;;;;;;5.00;74.27;97043.63;5034264;28;20151;-81
2023/03/10 08:25:50;;;;;;;3.22;2.90;;;;;;;5.02;74.31;97038.28;5033887;28;20549;-81
2023/03/10 08:28:16;;;;;;;3.03;2.72;;;;;;;5.02;74.74;97036.53;5033879;28;20088;-81
2023/03/10 08:30:43;;;;;;;2.90;2.60;;;;;;;5.03;74.21;97046.00;5034395;28;20148;-81
2023/03/10 08:33:29;;;;;;;2.70;2.35;;;;;;;5.04;74.31;97041.59;5034333;28;20563;-81
2023/03/10 08:36:08;;;;;;;2.50;2.30;;;;;;;5.03;73.78;97052.97;5033861;28;20049;-81
2023/03/10 08:38:35;;;;;;;2.63;2.20;;;;;;;5.05;74.19;97049.28;5048745;28;20545;-81
2023/03/10 08:41:21;;;;;;;2.80;2.60;;;;;;;5.02;73.69;97052.16;5033885;28;20412;-81
2023/03/10 08:43:49;;;;;;;2.50;2.30;;;;;;;5.05;74.25;97054.50;5049362;28;20049;-81
2023/03/10 08:46:17;;;;;;;2.28;2.08;;;;;;;5.05;74.10;97059.72;5033613;28;20053;-81
2023/03/10 08:48:44;;;;;;;2.10;1.90;;;;;;;5.06;74.18;97056.19;5033423;28;20152;-81
2023/03/10 08:51:11;;;;;;;1.98;1.77;;;;;;;5.05;74.06;97041.47;5033640;28;20524;-81
2023/03/10 08:53:42;;;;;;;2.17;1.98;;;;;;;5.05;74.14;97049.28;5033915;28;20049;-81
2023/03/10 08:56:09;;;;;;;2.03;1.83;;;;;;;5.04;74.37;97052.84;5033691;28;20059;-81
2023/03/10 08:58:35;;;;;;;2.00;1.83;;;;;;;5.07;74.33;97052.63;5015530;28;20056;-81
2023/03/10 09:01:03;;;;;;;1.70;1.60;;;;;;;5.09;74.11;97058.53;5033547;28;20049;-81
2023/03/10 09:03:29;;;;;;;3.47;1.80;;;;;;;5.09;74.20;97055.94;5015788;28;20057;-81
2023/03/10 09:05:57;;;;;;;2.13;1.73;;;;;;;5.11;74.32;97057.59;5033145;28;20445;-81
2023/03/10 09:08:24;;;;;;;2.47;2.20;;;;;;;5.11;74.18;97058.41;5032982;28;20068;-81
2023/03/10 09:10:53;;;;;;;2.03;1.83;;;;;;;5.12;74.21;97067.09;5033113;28;20049;-81
2023/03/10 09:13:19;;;;;;;1.80;1.70;;;;;;;5.13;74.23;97074.78;5015851;28;20041;-81
2023/03/10 09:15:46;;;;;;;2.17;1.98;;;;;;;5.13;74.28;97071.34;5033077;28;20140;-81
2023/03/10 09:18:14;;;;;;;2.15;1.88;;;;;;;5.14;74.44;97078.22;5032833;28;20136;-81
2023/03/10 09:20:42;;;;;;;2.30;2.10;;;;;;;5.15;74.57;97064.22;5033080;28;20055;-81
2023/03/10 09:23:10;;;;;;;2.53;1.80;;;;;;;5.19;74.34;97068.25;5033403;28;20132;-81
2023/03/10 09:25:39;;;;;;;1.70;1.60;;;;;;;5.19;74.35;97066.47;5032848;28;20501;-81
2023/03/10 09:28:06;;;;;;;4.13;2.00;;;;;;;5.21;74.33;97064.56;5032989;28;20048;-81
2023/03/10 09:30:36;;;;;;;2.00;1.80;;;;;;;5.22;74.29;97065.41;5032941;28;20687;-81
2023/03/10 09:33:04;;;;;;;1.52;1.42;;;;;;;5.25;74.45;97072.16;5015685;28;20057;-81
2023/03/10 09:35:31;;;;;;;2.28;1.67;;;;;;;5.27;74.45;97078.09;5032688;28;20509;-81
2023/03/10 09:37:58;;;;;;;1.77;1.60;;;;;;;5.28;74.43;97075.38;5032765;28;20050;-81
2023/03/10 09:40:25;;;;;;;3.25;1.60;;;;;;;5.29;74.39;97076.19;5015279;28;20057;-81
2023/03/10 09:43:04;;;;;;;1.75;1.65;;;;;;;5.28;74.26;97069.31;5032922;28;20049;-81
2023/03/10 09:45:54;;;;;;;1.98;1.80;;;;;;;5.29;74.08;97074.41;5047950;28;20059;-81
2023/03/10 09:48:33;;;;;;;1.83;1.70;;;;;;;5.33;73.86;97061.94;5032665;28;20049;-81
2023/03/10 09:51:07;;;;;;;1.88;1.65;;;;;;;5.34;74.11;97069.66;5032748;28;20057;-80
2023/03/10 09:53:49;;;;;;;3.38;1.85;;;;;;;5.32;74.05;97065.50;5032756;28;20049;-81
2023/03/10 09:56:23;;;;;;;2.03;1.88;;;;;;;5.30;73.83;97063.03;5032717;28;20057;-80
2023/03/10 09:58:57;;;;;;;1.70;1.60;;;;;;;5.29;74.07;97061.38;5032464;28;20045;-81
2023/03/10 10:01:28;;;;;;;2.83;1.88;;;;;;;5.29;74.31;97060.53;5047959;28;20056;-81
2023/03/10 10:04:04;;;;;;;2.42;2.00;;;;;;;5.29;74.13;97076.19;5015016;28;20500;-82
2023/03/10 10:06:38;;;;;;;2.47;2.28;;;;;;;5.30;74.43;97072.63;5032197;28;20506;-80
2023/03/10 10:09:08;;;;;;;2.47;1.95;;;;;;;5.33;74.86;97073.22;5032839;28;20053;-81
2023/03/10 10:11:35;;;;;;;2.85;2.20;;;;;;;5.36;74.68;97069.53;5032333;28;20088;-80
2023/03/10 10:14:19;;;;;;;3.97;2.05;;;;;;;5.39;74.87;97076.28;5032303;28;20049;-81
2023/03/10 10:17:24;;;;;;;2.03;1.80;;;;;;;5.40;74.63;97077.94;5032160;28;20053;-82
2023/03/10 10:19:52;;;;;;;2.17;1.75;;;;;;;5.47;74.68;97076.50;5032198;28;20144;-81
2023/03/10 10:22:34;;;;;;;2.22;2.05;;;;;;;5.46;74.08;97072.25;5031738;28;20053;-81
2023/03/10 10:25:09;;;;;;;2.22;2.03;;;;;;;5.49;74.31;97074.59;5031675;28;20056;-81
2023/03/10 10:27:37;;;;;;;2.15;1.73;;;;;;;5.53;74.52;97086.44;5031759;28;20048;-81
2023/03/10 10:30:23;;;;;;;2.00;1.75;;;;;;;5.50;74.44;97081.50;5031982;28;20049;-81
2023/03/10 10:32:58;;;;;;;2.13;1.92;;;;;;;5.53;74.86;97085.66;5031755;28;20473;-81
2023/03/10 10:35:26;;;;;;;;;;;;;;;5.55;74.29;97087.19;5032281;28;20413;-81
2023/03/10 10:38:03;;;;;;;2.00;1.80;;;;;;;5.57;74.18;97090.47;5031570;28;19921;-81
2023/03/10 10:40:33;;;;;;;2.00;1.80;;;;;;;5.58;74.54;97089.53;5031920;28;20053;-81
2023/03/10 10:43:04;;;;;;;2.45;1.98;;;;;;;5.57;74.80;97093.09;5031863;28;20089;-81
2023/03/10 10:45:36;;;;;;;2.22;2.03;;;;;;;5.57;74.75;97087.88;5031370;28;20049;-81
2023/03/10 10:48:03;;;;;;;2.17;1.98;;;;;;;5.61;75.43;97086.66;5031437;28;20056;-81
2023/03/10 10:50:32;;;;;;;2.92;2.15;;;;;;;5.64;75.14;97090.81;5031858;28;20424;-81
2023/03/10 10:53:20;;;;;;;3.05;2.53;;;;;;;5.67;75.06;97079.31;5018230;28;20045;-81
2023/03/10 10:56:03;;;;;;;3.40;2.33;;;;;;;5.68;74.83;97076.56;5031449;28;20060;-81
2023/03/10 10:58:33;;;;;;;2.55;2.28;;;;;;;5.75;75.01;97082.13;5031281;28;20056;-81
2023/03/10 11:01:06;;;;;;;2.72;2.45;;;;;;;5.77;74.90;97085.47;5031608;28;20052;-81
2023/03/10 11:03:36;;;;;;;2.75;2.40;;;;;;;5.79;74.92;97088.75;5031363;28;20056;-81
2023/03/10 11:06:12;;;;;;;2.60;2.40;;;;;;;5.78;74.43;97081.88;5031095;28;20449;-81
2023/03/10 11:08:41;;;;;;;2.58;2.35;;;;;;;5.81;74.71;97089.47;5031020;28;20093;-81
2023/03/10 11:11:17;;;;;;;2.72;2.30;;;;;;;5.82;74.47;97092.91;5031328;28;20041;-81
2023/03/10 11:13:49;;;;;;;2.30;2.10;;;;;;;5.83;74.90;97100.63;5031199;28;20470;-81
2023/03/10 11:16:46;;;;;;;3.45;2.47;;;;;;;5.81;74.33;97102.53;5030899;28;20042;-81
2023/03/10 11:19:31;;;;;;;4.07;2.13;;;;;;;5.85;74.84;97105.72;5031360;28;20116;-81
2023/03/10 11:22:11;;;;;;;3.80;2.78;;;;;;;5.85;74.54;97117.00;5031169;28;20160;-81
2023/03/10 11:25:21;;;;;;;3.00;2.70;;;;;;;5.88;74.45;97115.91;5031322;28;20049;-79
2023/03/10 11:27:59;;;;;;;2.63;2.42;;;;;;;5.94;74.86;97112.81;5030399;28;20490;-81
2023/03/10 11:30:39;;;;;;;2.47;2.22;;;;;;;5.97;74.71;97109.94;5031014;28;20077;-79
2023/03/10 11:33:19;;;;;;;2.10;1.90;;;;;;;6.01;74.70;97107.91;5030869;28;20053;-79
2023/03/10 11:35:50;;;;;;;2.47;2.20;;;;;;;6.07;75.21;97102.22;5030546;28;20410;-81
2023/03/10 11:38:38;;;;;;;2.67;2.30;;;;;;;6.11;75.12;97101.03;5030379;28;20123;-81
2023/03/10 11:41:18;;;;;;;2.78;2.33;;;;;;;6.18;75.06;97095.28;5030812;28;20061;-78
2023/03/10 11:44:03;;;;;;;3.25;1.90;;;;;;;6.23;75.07;97090.50;5013267;28;20136;-79
2023/03/10 11:46:43;;;;;;;2.10;1.90;;;;;;;6.29;74.90;97090.03;5030794;28;20320;-81
2023/03/10 11:49:13;;;;;;;2.15;1.98;;;;;;;6.33;75.03;97093.19;5030949;28;20057;-81
2023/03/10 11:51:54;;;;;;;2.03;1.83;;;;;;;6.34;74.23;97094.84;5030911;28;20430;-81
2023/03/10 11:54:34;;;;;;;2.10;1.90;;;;;;;6.36;74.30;97090.34;5030735;28;20064;-81